createdAt,value
2018-05-31T00:01:27.802Z,59.43
2018-05-31T00:03:56.285Z,58.86
2018-05-31T00:06:24.847Z,58.32
2018-05-31T00:08:54.329Z,59.54
2018-05-31T00:11:23.058Z,59.53
2018-05-31T00:13:51.518Z,58.16
2018-05-31T00:16:19.951Z,58.83
2018-05-31T00:18:48.409Z,59.01
2018-05-31T00:21:16.842Z,58.41
2018-05-31T00:23:45.239Z,59.29
2018-05-31T00:26:13.763Z,59.03
2018-05-31T00:28:42.247Z,60.12
2018-05-31T00:31:10.712Z,59.69
2018-05-31T00:33:39.162Z,57.58
2018-05-31T00:36:07.775Z,58.89
2018-05-31T00:38:36.200Z,58.37
2018-05-31T00:41:04.689Z,58.17
2018-05-31T00:43:33.149Z,58.48
2018-05-31T00:46:01.550Z,58.52
2018-05-31T00:48:29.996Z,58.35
2018-05-31T00:50:58.461Z,59.13
2018-05-31T00:53:26.933Z,58.50
2018-05-31T00:56:07.192Z,58.31
2018-05-31T00:58:35.605Z,58.05
2018-05-31T01:01:04.102Z,58.08
2018-05-31T01:03:32.591Z,58.43
2018-05-31T01:06:02.017Z,58.29
2018-05-31T01:08:30.600Z,58.52
2018-05-31T01:10:59.027Z,58.25
2018-05-31T01:13:27.462Z,59.48
2018-05-31T01:15:55.891Z,59.75
2018-05-31T01:18:24.313Z,60.32
2018-05-31T01:20:52.782Z,58.90
2018-05-31T01:23:21.274Z,59.48
2018-05-31T01:25:49.711Z,59.05
2018-05-31T01:28:18.185Z,59.17
2018-05-31T01:30:46.638Z,58.83
2018-05-31T01:33:15.188Z,59.75
2018-05-31T01:35:43.706Z,58.00
2018-05-31T01:38:23.892Z,57.98
2018-05-31T01:40:52.377Z,57.77
2018-05-31T01:43:20.823Z,57.63
2018-05-31T01:45:49.245Z,59.75
2018-05-31T01:48:17.740Z,58.78
2018-05-31T01:50:46.186Z,59.96
2018-05-31T01:53:14.604Z,58.82
2018-05-31T01:55:43.059Z,59.39
2018-05-31T01:58:11.526Z,58.90
2018-05-31T02:00:39.984Z,60.44
2018-05-31T02:03:08.501Z,60.18
2018-05-31T02:05:36.915Z,60.52
2018-05-31T02:08:05.345Z,59.90
2018-05-31T02:10:33.791Z,59.92
2018-05-31T02:13:02.437Z,60.08
2018-05-31T02:15:30.892Z,59.01
2018-05-31T02:17:59.337Z,59.65
2018-05-31T02:20:27.756Z,58.94
2018-05-31T02:22:56.207Z,60.60
2018-05-31T02:25:24.662Z,59.50
2018-05-31T02:27:53.136Z,59.69
2018-05-31T02:30:21.626Z,59.65
2018-05-31T02:32:50.077Z,59.66
2018-05-31T02:35:18.505Z,59.61
2018-05-31T02:37:46.943Z,60.23
2018-05-31T02:40:15.380Z,58.89
2018-05-31T02:42:43.824Z,59.75
2018-05-31T02:45:12.253Z,59.88
2018-05-31T02:47:40.669Z,59.92
2018-05-31T02:50:09.120Z,60.03
2018-05-31T02:52:37.562Z,60.33
2018-05-31T02:55:06.124Z,60.01
2018-05-31T02:57:34.558Z,58.73
2018-05-31T03:00:02.958Z,60.15
2018-05-31T03:02:37.374Z,59.09
2018-05-31T03:05:05.829Z,59.44
2018-05-31T03:07:34.219Z,58.34
2018-05-31T03:10:02.708Z,58.28
2018-05-31T03:12:31.239Z,58.69
2018-05-31T03:14:59.697Z,59.46
2018-05-31T03:17:28.168Z,59.46
2018-05-31T03:19:57.747Z,58.81
2018-05-31T03:22:26.190Z,60.18
2018-05-31T03:24:54.657Z,60.02
2018-05-31T03:27:24.189Z,59.39
2018-05-31T03:29:52.704Z,60.39
2018-05-31T03:32:21.226Z,58.64
2018-05-31T03:34:49.700Z,58.99
2018-05-31T03:37:18.121Z,58.81
2018-05-31T03:39:47.565Z,59.69
2018-05-31T03:42:16.108Z,60.95
2018-05-31T03:44:44.498Z,58.60
2018-05-31T03:47:13.131Z,61.04
2018-05-31T03:49:41.566Z,58.86
2018-05-31T03:52:10.192Z,59.07
2018-05-31T03:54:38.653Z,59.53
2018-05-31T03:57:07.103Z,60.00
2018-05-31T03:59:35.540Z,58.27
2018-05-31T04:02:04.016Z,58.11
2018-05-31T04:04:32.549Z,58.11
2018-05-31T04:07:01.082Z,57.76
2018-05-31T04:09:29.666Z,57.01
2018-05-31T04:11:58.262Z,56.97
2018-05-31T04:14:26.827Z,57.33
2018-05-31T04:16:55.344Z,57.42
2018-05-31T04:19:23.791Z,55.89
2018-05-31T04:21:53.143Z,55.99
2018-05-31T04:24:21.657Z,55.21
2018-05-31T04:26:50.145Z,57.57
2018-05-31T04:29:18.649Z,55.93
2018-05-31T04:31:47.148Z,56.15
2018-05-31T04:34:15.602Z,55.76
2018-05-31T04:36:44.127Z,53.87
2018-05-31T04:39:14.757Z,53.65
2018-05-31T04:41:43.326Z,53.33
2018-05-31T04:44:11.805Z,54.92
2018-05-31T04:46:40.330Z,54.12
2018-05-31T04:49:08.778Z,54.13
2018-05-31T04:51:37.315Z,53.67
2018-05-31T04:54:06.708Z,52.75
2018-05-31T04:56:35.128Z,52.64
2018-05-31T04:59:03.693Z,52.55
2018-05-31T05:01:32.163Z,53.14
2018-05-31T05:04:00.669Z,52.19
2018-05-31T05:06:29.220Z,51.67
2018-05-31T05:08:57.683Z,52.60
2018-05-31T05:11:26.097Z,52.74
2018-05-31T05:13:54.716Z,52.96
2018-05-31T05:16:23.101Z,51.89
2018-05-31T05:18:51.626Z,50.96
2018-05-31T05:21:20.023Z,50.80
2018-05-31T05:23:48.441Z,50.16
2018-05-31T05:26:16.864Z,47.21
2018-05-31T05:28:45.332Z,45.53
2018-05-31T05:31:14.130Z,45.87
2018-05-31T05:33:42.635Z,44.76
2018-05-31T05:36:11.467Z,42.18
2018-05-31T05:38:40.049Z,39.95
2018-05-31T05:41:08.571Z,39.00
2018-05-31T05:43:37.119Z,36.42
2018-05-31T05:46:05.498Z,34.45
2018-05-31T05:48:33.876Z,36.96
2018-05-31T05:51:02.328Z,38.50
2018-05-31T05:53:32.703Z,35.33
2018-05-31T05:56:02.019Z,35.20
2018-05-31T05:58:30.436Z,36.25
2018-05-31T06:01:00.758Z,34.75
2018-05-31T06:03:29.216Z,32.36
2018-05-31T06:05:57.703Z,31.35
2018-05-31T06:08:26.130Z,32.96
2018-05-31T06:10:54.668Z,30.90
2018-05-31T06:13:23.114Z,32.76
2018-05-31T06:15:51.576Z,32.28
2018-05-31T06:18:19.999Z,31.42
2018-05-31T06:20:48.379Z,31.01
2018-05-31T06:23:16.820Z,31.62
2018-05-31T06:25:45.368Z,32.95
2018-05-31T06:28:13.797Z,31.69
2018-05-31T06:30:42.189Z,30.85
2018-05-31T06:33:10.581Z,30.93
2018-05-31T06:35:40.970Z,28.65
2018-05-31T06:38:09.376Z,27.74
2018-05-31T06:40:37.883Z,25.94
2018-05-31T06:43:06.261Z,26.57
2018-05-31T06:45:34.650Z,29.68
2018-05-31T06:48:03.090Z,29.76
2018-05-31T06:50:31.482Z,28.48
2018-05-31T06:52:59.924Z,28.18
2018-05-31T06:55:28.368Z,26.53
2018-05-31T06:57:56.899Z,24.65
2018-05-31T07:00:25.640Z,24.36
2018-05-31T07:02:54.101Z,24.36
2018-05-31T07:05:22.575Z,23.34
2018-05-31T07:07:51.903Z,27.68
2018-05-31T07:10:20.353Z,28.70
2018-05-31T07:12:48.910Z,29.00
2018-05-31T07:15:17.284Z,29.46
2018-05-31T07:17:45.838Z,26.53
2018-05-31T07:20:14.261Z,25.81
2018-05-31T07:22:43.585Z,27.12
2018-05-31T07:25:12.035Z,25.72
2018-05-31T07:27:40.514Z,25.36
2018-05-31T07:30:09.033Z,28.29
2018-05-31T07:32:37.430Z,29.21
2018-05-31T07:35:05.820Z,30.09
2018-05-31T07:37:35.206Z,28.74
2018-05-31T07:40:03.592Z,26.28
2018-05-31T07:42:32.364Z,25.70
2018-05-31T07:45:00.802Z,22.56
2018-05-31T07:47:30.225Z,22.81
2018-05-31T07:49:58.722Z,21.85
2018-05-31T07:52:27.198Z,21.22
2018-05-31T07:54:55.636Z,23.03
2018-05-31T07:57:25.079Z,23.04
2018-05-31T07:59:53.468Z,23.99
2018-05-31T08:02:21.871Z,21.92
2018-05-31T08:04:50.299Z,21.80
2018-05-31T08:07:19.231Z,24.10
2018-05-31T08:09:47.753Z,25.05
2018-05-31T08:12:16.190Z,26.13
2018-05-31T08:14:44.564Z,27.80
2018-05-31T08:17:13.114Z,28.09
2018-05-31T08:19:41.567Z,24.98
2018-05-31T08:22:09.941Z,24.23
2018-05-31T08:24:38.387Z,23.25
2018-05-31T08:27:07.752Z,21.52
2018-05-31T08:29:36.148Z,20.79
2018-05-31T08:32:04.634Z,20.88
2018-05-31T08:34:35.026Z,20.14
2018-05-31T08:37:04.358Z,19.52
2018-05-31T08:39:32.768Z,20.19
2018-05-31T08:42:02.022Z,19.67
2018-05-31T08:44:30.545Z,21.03
2018-05-31T08:46:59.335Z,19.40
2018-05-31T08:49:28.747Z,22.33
2018-05-31T08:51:57.272Z,23.78
2018-05-31T08:54:25.970Z,23.17
2018-05-31T08:56:54.695Z,23.49
2018-05-31T08:59:23.212Z,24.54
2018-05-31T09:01:51.619Z,21.05
2018-05-31T09:04:20.126Z,21.97
2018-05-31T09:06:48.624Z,22.03
2018-05-31T09:09:18.005Z,24.33
2018-05-31T09:11:47.399Z,21.88
2018-05-31T09:14:15.834Z,22.47
2018-05-31T09:16:44.234Z,22.08
2018-05-31T09:19:13.003Z,21.68
2018-05-31T09:21:41.790Z,19.89
2018-05-31T09:24:10.608Z,20.30
2018-05-31T09:26:39.080Z,19.79
2018-05-31T09:29:07.560Z,20.07
2018-05-31T09:31:36.277Z,21.05
2018-05-31T09:34:04.774Z,22.02
2018-05-31T09:36:34.568Z,22.41
2018-05-31T09:39:03.626Z,20.52
2018-05-31T09:41:32.189Z,21.89
2018-05-31T09:44:00.653Z,21.86
2018-05-31T09:46:29.278Z,21.01
2018-05-31T09:48:57.976Z,21.65
2018-05-31T09:51:26.443Z,20.45
2018-05-31T09:53:55.282Z,20.51
2018-05-31T09:56:24.396Z,23.24
2018-05-31T09:58:53.017Z,23.50
2018-05-31T10:01:21.679Z,22.01
2018-05-31T10:03:50.357Z,21.80
2018-05-31T10:06:24.117Z,21.14
2018-05-31T10:08:53.150Z,19.79
2018-05-31T10:11:21.648Z,19.26
2018-05-31T10:13:50.218Z,19.40
2018-05-31T10:16:18.822Z,18.91
2018-05-31T10:18:47.513Z,17.74
2018-05-31T10:21:16.166Z,17.81
2018-05-31T10:23:48.914Z,18.78
2018-05-31T10:26:17.856Z,18.72
2018-05-31T10:28:46.562Z,20.78
2018-05-31T10:31:17.623Z,20.79
2018-05-31T10:33:47.519Z,20.20
2018-05-31T10:36:17.111Z,19.04
2018-05-31T10:38:45.679Z,19.70
2018-05-31T10:41:14.181Z,22.14
2018-05-31T10:46:17.544Z,23.61
2018-05-31T10:48:46.090Z,25.55
2018-05-31T10:51:18.659Z,25.73
2018-05-31T10:53:47.166Z,24.93
2018-05-31T10:56:17.190Z,22.71
2018-05-31T10:58:46.092Z,23.13
2018-05-31T11:01:14.607Z,21.89
2018-05-31T11:03:43.092Z,21.37
2018-05-31T11:06:11.616Z,21.41
2018-05-31T11:08:40.089Z,19.87
2018-05-31T11:11:08.713Z,23.05
2018-05-31T11:13:37.279Z,22.07
2018-05-31T11:16:05.723Z,22.60
2018-05-31T11:18:34.256Z,23.53
2018-05-31T11:21:19.729Z,24.24
2018-05-31T11:23:48.858Z,23.88
2018-05-31T11:26:19.206Z,25.46
2018-05-31T11:28:48.006Z,24.73
2018-05-31T11:31:16.631Z,25.65
2018-05-31T11:33:45.061Z,25.98
2018-05-31T11:36:13.563Z,24.94
2018-05-31T11:38:42.004Z,25.61
2018-05-31T11:41:10.956Z,24.73
2018-05-31T11:43:41.099Z,25.90
2018-05-31T11:46:15.362Z,24.87
2018-05-31T11:48:44.860Z,25.13
2018-05-31T11:53:48.870Z,24.18
2018-05-31T11:56:17.910Z,26.46
2018-05-31T11:58:46.425Z,25.78
2018-05-31T12:01:15.031Z,25.92
2018-05-31T12:03:43.704Z,25.82
2018-05-31T12:06:12.199Z,26.52
2018-05-31T12:08:40.875Z,24.49
2018-05-31T12:11:09.437Z,25.66
2018-05-31T12:13:39.090Z,25.34
2018-05-31T12:16:09.521Z,26.86
2018-05-31T12:18:38.139Z,26.08
2018-05-31T12:21:07.496Z,26.61
2018-05-31T12:23:39.839Z,26.34
2018-05-31T12:26:09.505Z,27.47
2018-05-31T12:28:39.318Z,27.16
2018-05-31T12:31:08.417Z,26.20
2018-05-31T12:33:38.041Z,26.98
2018-05-31T12:36:06.825Z,25.56
2018-05-31T12:38:35.854Z,25.68
2018-05-31T12:41:04.576Z,27.84
2018-05-31T12:43:33.594Z,27.10
2018-05-31T12:46:03.194Z,27.38
2018-05-31T12:48:32.592Z,27.32
2018-05-31T12:51:02.298Z,26.50
2018-05-31T12:53:31.904Z,26.37
2018-05-31T12:56:00.786Z,28.05
2018-05-31T12:58:29.307Z,26.80
2018-05-31T13:00:58.002Z,26.32
2018-05-31T13:03:28.203Z,25.52
2018-05-31T13:05:57.749Z,25.32
2018-05-31T13:08:28.822Z,25.53
2018-05-31T13:10:57.529Z,35.21
2018-05-31T13:13:33.775Z,35.68
2018-05-31T13:16:02.569Z,35.73
2018-05-31T13:18:31.834Z,36.07
2018-05-31T13:21:02.003Z,37.13
2018-05-31T13:23:30.987Z,36.35
2018-05-31T13:26:00.250Z,37.68
2018-05-31T13:28:29.315Z,38.65
2018-05-31T13:30:58.581Z,38.47
2018-05-31T13:33:29.830Z,40.56
2018-05-31T13:35:58.803Z,38.97
2018-05-31T13:38:28.545Z,39.67
2018-05-31T13:40:57.588Z,40.31
2018-05-31T13:43:26.645Z,40.59
2018-05-31T13:45:55.192Z,42.84
2018-05-31T13:48:24.099Z,43.33
2018-05-31T13:50:52.721Z,43.37
2018-05-31T13:53:21.451Z,46.42
2018-05-31T13:55:50.898Z,47.83
2018-05-31T13:58:19.559Z,50.08
2018-05-31T14:00:48.155Z,49.09
2018-05-31T14:03:16.926Z,51.33
2018-05-31T14:05:45.389Z,54.07
2018-05-31T14:08:13.944Z,56.28
2018-05-31T14:10:42.440Z,55.16
2018-05-31T14:13:11.219Z,56.18
2018-05-31T14:15:39.991Z,56.88
2018-05-31T14:18:08.732Z,55.98
2018-05-31T14:20:37.352Z,55.42
2018-05-31T14:23:06.629Z,55.12
2018-05-31T14:25:35.115Z,53.90
2018-05-31T14:28:03.643Z,52.08
2018-05-31T14:30:32.030Z,54.55
2018-05-31T14:33:01.504Z,58.89
2018-05-31T14:35:30.055Z,50.77
2018-05-31T14:37:58.542Z,52.33
2018-05-31T14:40:27.230Z,50.17
2018-05-31T14:42:56.764Z,50.79
2018-05-31T14:45:25.274Z,53.57
2018-05-31T14:47:54.010Z,50.20
2018-05-31T14:50:22.578Z,51.59
2018-05-31T14:52:51.386Z,51.63
2018-05-31T14:55:20.259Z,51.64
2018-05-31T14:57:48.693Z,54.46
2018-05-31T15:00:17.095Z,51.09
2018-05-31T15:02:45.522Z,57.31
2018-05-31T15:05:14.825Z,53.55
2018-05-31T15:07:44.442Z,49.24
2018-05-31T15:10:13.835Z,50.72
2018-05-31T15:12:42.720Z,48.56
2018-05-31T15:15:11.551Z,49.61
2018-05-31T15:17:40.067Z,48.56
2018-05-31T15:20:08.781Z,49.03
2018-05-31T15:22:37.231Z,49.16
2018-05-31T15:25:05.668Z,51.32
2018-05-31T15:27:34.965Z,50.66
2018-05-31T15:30:03.723Z,52.53
2018-05-31T15:32:32.493Z,55.86
2018-05-31T15:35:01.067Z,52.79
2018-05-31T15:37:29.857Z,55.85
2018-05-31T15:39:58.785Z,56.14
2018-05-31T15:42:27.682Z,58.39
2018-05-31T15:44:56.915Z,56.58
2018-05-31T15:47:27.208Z,57.95
2018-05-31T15:49:55.892Z,59.24
2018-05-31T15:52:24.917Z,58.98
2018-05-31T15:54:54.379Z,56.14
2018-05-31T15:57:26.648Z,53.72
2018-05-31T15:59:55.297Z,54.71
2018-05-31T16:02:28.942Z,56.53
2018-05-31T16:05:07.066Z,57.68
2018-05-31T16:07:37.315Z,55.40
2018-05-31T16:10:06.785Z,56.97
2018-05-31T16:12:36.951Z,58.35
2018-05-31T16:15:05.486Z,55.17
2018-05-31T16:17:34.031Z,54.69
2018-05-31T16:20:02.653Z,55.46
2018-05-31T16:22:31.266Z,58.42
2018-05-31T16:24:59.945Z,58.56
2018-05-31T16:27:28.584Z,57.11
2018-05-31T16:29:57.019Z,56.29
2018-05-31T16:32:25.433Z,55.45
2018-05-31T16:34:54.009Z,59.75
2018-05-31T16:37:22.498Z,55.04
2018-05-31T16:39:51.814Z,55.88
2018-05-31T16:42:20.350Z,60.34
2018-05-31T16:44:49.820Z,57.08
2018-05-31T16:47:18.334Z,54.84
2018-05-31T16:49:46.761Z,54.81
2018-05-31T16:52:15.208Z,54.67
2018-05-31T16:54:43.659Z,55.03
2018-05-31T16:57:12.155Z,55.50
2018-05-31T16:59:41.111Z,54.55
2018-05-31T17:02:10.546Z,53.32
2018-05-31T17:06:03.013Z,56.87
2018-05-31T17:08:31.402Z,57.34
2018-05-31T17:10:59.813Z,55.84
2018-05-31T17:13:28.341Z,56.73
2018-05-31T17:15:56.791Z,55.38
2018-05-31T17:18:25.266Z,57.23
2018-05-31T17:20:53.833Z,55.24
2018-05-31T17:23:22.865Z,54.42
2018-05-31T17:25:55.271Z,58.72
2018-05-31T17:28:23.854Z,56.46
2018-05-31T17:30:52.270Z,57.04
2018-05-31T17:33:20.671Z,58.08
2018-05-31T17:35:49.114Z,57.06
2018-05-31T17:38:17.644Z,55.33
2018-05-31T17:40:46.159Z,55.97
2018-05-31T17:43:14.608Z,54.91
2018-05-31T17:45:43.124Z,57.95
2018-05-31T17:48:13.474Z,59.37
2018-05-31T17:50:41.847Z,58.96
2018-05-31T17:53:10.258Z,55.99
2018-05-31T17:55:38.654Z,56.70
2018-05-31T17:58:08.072Z,59.70
2018-05-31T18:00:36.442Z,59.12
2018-05-31T18:03:04.878Z,57.05
2018-05-31T18:05:33.279Z,58.58
2018-05-31T18:08:01.658Z,58.77
2018-05-31T18:10:30.061Z,60.05
2018-05-31T18:12:58.443Z,57.60
2018-05-31T18:15:27.090Z,59.50
2018-05-31T18:17:55.679Z,56.65
2018-05-31T18:20:24.171Z,55.61
2018-05-31T18:22:56.448Z,55.48
2018-05-31T18:25:24.925Z,60.00
2018-05-31T18:27:53.397Z,59.07
2018-05-31T18:30:21.826Z,57.65
2018-05-31T18:32:54.148Z,59.48
2018-05-31T18:35:22.631Z,58.01
2018-05-31T18:37:51.061Z,59.76
2018-05-31T18:40:19.514Z,59.53
2018-05-31T18:42:47.946Z,57.86
2018-05-31T18:45:16.469Z,60.22
2018-05-31T18:47:44.920Z,56.45
2018-05-31T18:50:13.350Z,57.64
2018-05-31T18:52:41.713Z,56.18
2018-05-31T18:55:10.139Z,58.30
2018-05-31T18:57:38.518Z,58.32
2018-05-31T19:00:06.966Z,57.23
2018-05-31T19:02:35.425Z,58.64
2018-05-31T19:05:03.948Z,59.82
2018-05-31T19:07:32.418Z,59.06
2018-05-31T19:10:00.850Z,58.42
2018-05-31T19:12:34.795Z,56.84
2018-05-31T19:15:03.165Z,57.93
2018-05-31T19:17:31.594Z,58.14
2018-05-31T19:20:00.113Z,58.47
2018-05-31T19:22:29.354Z,58.69
2018-05-31T19:25:03.262Z,58.77
2018-05-31T19:27:31.719Z,57.56
2018-05-31T19:30:05.918Z,58.06
2018-05-31T19:32:34.339Z,58.07
2018-05-31T19:35:03.689Z,58.96
2018-05-31T19:37:32.053Z,59.62
2018-05-31T19:40:00.423Z,59.69
2018-05-31T19:42:34.604Z,61.77
2018-05-31T19:45:03.061Z,63.12
2018-05-31T19:47:31.525Z,62.75
2018-05-31T19:50:00.015Z,61.50
2018-05-31T19:52:34.140Z,63.03
2018-05-31T19:55:02.509Z,64.57
2018-05-31T19:57:30.994Z,63.28
2018-05-31T20:00:04.902Z,63.19
2018-05-31T20:02:38.908Z,64.73
2018-05-31T20:05:07.371Z,63.63
2018-05-31T20:07:35.763Z,64.23
2018-05-31T20:10:04.207Z,63.26
2018-05-31T20:12:32.660Z,63.21
2018-05-31T20:15:01.038Z,61.70
2018-05-31T20:17:29.516Z,61.60
2018-05-31T20:19:57.867Z,61.27
2018-05-31T20:22:26.364Z,61.37
2018-05-31T20:24:54.754Z,61.68
2018-05-31T20:27:23.226Z,62.72
2018-05-31T20:29:51.595Z,63.08
2018-05-31T20:32:19.957Z,62.19
2018-05-31T20:34:48.400Z,63.36
2018-05-31T20:37:16.807Z,64.07
2018-05-31T20:39:45.364Z,62.69
2018-05-31T20:42:13.782Z,62.75
2018-05-31T20:44:42.275Z,63.76
2018-05-31T20:47:10.846Z,65.16
2018-05-31T20:49:39.200Z,63.03
2018-05-31T20:52:07.632Z,64.08
2018-05-31T20:54:35.990Z,63.99
2018-05-31T20:57:04.475Z,64.26
2018-05-31T20:59:33.856Z,64.03
2018-05-31T21:02:02.247Z,63.09
2018-05-31T21:04:30.651Z,64.93
2018-05-31T21:06:59.125Z,63.83
2018-05-31T21:09:27.546Z,63.89
2018-05-31T21:11:56.025Z,64.11
2018-05-31T21:14:24.361Z,62.32
2018-05-31T21:16:52.745Z,62.49
2018-05-31T21:19:21.161Z,62.30
2018-05-31T21:21:49.527Z,64.28
2018-05-31T21:24:17.893Z,63.39
2018-05-31T21:26:46.326Z,64.49
2018-05-31T21:29:14.734Z,62.85
2018-05-31T21:31:43.224Z,63.49
2018-05-31T21:34:11.690Z,62.92
2018-05-31T21:36:40.136Z,62.52
2018-05-31T21:39:08.506Z,62.38
2018-05-31T21:41:36.933Z,62.89
2018-05-31T21:44:05.289Z,63.22
2018-05-31T21:46:33.654Z,64.95
2018-05-31T21:49:03.112Z,63.83
2018-05-31T21:51:31.504Z,62.95
2018-05-31T21:53:59.873Z,62.03
2018-05-31T21:56:28.388Z,62.84
2018-05-31T21:58:56.802Z,63.83
2018-05-31T22:01:25.236Z,62.86
2018-05-31T22:03:53.671Z,63.59
2018-05-31T22:06:22.065Z,62.09
2018-05-31T22:08:50.430Z,62.86
2018-05-31T22:11:18.909Z,64.09
2018-05-31T22:13:47.251Z,64.63
2018-05-31T22:16:15.626Z,63.59
2018-05-31T22:18:44.031Z,64.75
2018-05-31T22:21:12.385Z,63.77
2018-05-31T22:23:40.840Z,62.01
2018-05-31T22:26:09.239Z,64.32
2018-05-31T22:28:37.666Z,64.21
2018-05-31T22:31:06.044Z,65.17
2018-05-31T22:33:34.523Z,63.76
2018-05-31T22:36:02.927Z,64.71
2018-05-31T22:38:31.340Z,64.77
2018-05-31T22:40:59.733Z,62.71
2018-05-31T22:43:29.219Z,63.21
2018-05-31T22:45:57.662Z,64.64
2018-05-31T22:48:26.092Z,62.65
2018-05-31T22:50:54.464Z,63.75
2018-05-31T22:53:22.841Z,63.81
2018-05-31T22:55:51.215Z,64.34
2018-05-31T22:58:19.660Z,61.95
2018-05-31T23:00:48.049Z,61.80
2018-05-31T23:03:16.399Z,62.36
2018-05-31T23:05:44.847Z,63.02
2018-05-31T23:08:13.188Z,62.60
2018-05-31T23:10:41.645Z,62.62
2018-05-31T23:13:10.027Z,62.87
2018-05-31T23:15:38.405Z,61.90
2018-05-31T23:18:06.756Z,63.23
2018-05-31T23:20:35.224Z,64.00
2018-05-31T23:23:03.636Z,60.70
2018-05-31T23:25:32.050Z,61.76
2018-05-31T23:28:00.621Z,64.15
2018-05-31T23:30:28.989Z,63.46
2018-05-31T23:32:57.366Z,60.62
2018-05-31T23:35:25.741Z,61.12
2018-05-31T23:37:54.099Z,62.28
2018-05-31T23:40:22.589Z,60.14
2018-05-31T23:42:50.972Z,60.24
2018-05-31T23:45:19.337Z,59.22
2018-05-31T23:47:47.787Z,59.20
2018-05-31T23:50:16.165Z,60.36
2018-05-31T23:52:44.611Z,61.36
2018-05-31T23:55:12.956Z,61.29
2018-05-31T23:57:41.577Z,61.50
